sensor_id;sensor_type;location;lat;lon;timestamp;P1;durP1;ratioP1;P2;durP2;ratioP2
25932;SDS011;13731;51.166;4.474;2023-05-10T00:02:06;166.65;;;156.68;;
25932;SDS011;13731;51.166;4.474;2023-05-10T00:04:33;166.88;;;156.77;;
25932;SDS011;13731;51.166;4.474;2023-05-10T00:06:58;161.73;;;151.63;;
25932;SDS011;13731;51.166;4.474;2023-05-10T00:09:24;153.40;;;144.32;;
25932;SDS011;13731;51.166;4.474;2023-05-10T00:11:50;160.25;;;150.48;;
25932;SDS011;13731;51.166;4.474;2023-05-10T00:14:16;156.48;;;147.15;;
25932;SDS011;13731;51.166;4.474;2023-05-10T00:16:42;154.25;;;144.73;;
25932;SDS011;13731;51.166;4.474;2023-05-10T00:19:08;153.75;;;144.25;;
25932;SDS011;13731;51.166;4.474;2023-05-10T00:21:34;149.07;;;139.88;;
25932;SDS011;13731;51.166;4.474;2023-05-10T00:23:59;149.77;;;140.52;;
25932;SDS011;13731;51.166;4.474;2023-05-10T00:26:27;145.00;;;135.90;;
25932;SDS011;13731;51.166;4.474;2023-05-10T00:28:54;152.77;;;143.32;;
25932;SDS011;13731;51.166;4.474;2023-05-10T00:31:21;152.05;;;142.85;;
25932;SDS011;13731;51.166;4.474;2023-05-10T00:33:49;152.38;;;142.88;;
25932;SDS011;13731;51.166;4.474;2023-05-10T00:36:15;150.90;;;141.63;;
25932;SDS011;13731;51.166;4.474;2023-05-10T00:38:41;141.27;;;132.05;;
25932;SDS011;13731;51.166;4.474;2023-05-10T00:41:06;159.38;;;149.20;;
25932;SDS011;13731;51.166;4.474;2023-05-10T00:43:35;147.60;;;138.15;;
25932;SDS011;13731;51.166;4.474;2023-05-10T00:46:03;147.02;;;138.27;;
25932;SDS011;13731;51.166;4.474;2023-05-10T00:48:29;136.93;;;127.90;;
25932;SDS011;13731;51.166;4.474;2023-05-10T00:50:55;144.93;;;136.07;;
25932;SDS011;13731;51.166;4.474;2023-05-10T00:53:21;142.18;;;133.45;;
25932;SDS011;13731;51.166;4.474;2023-05-10T00:55:47;145.93;;;136.52;;
25932;SDS011;13731;51.166;4.474;2023-05-10T00:58:13;143.25;;;134.15;;
25932;SDS011;13731;51.166;4.474;2023-05-10T01:00:41;144.80;;;135.13;;
25932;SDS011;13731;51.166;4.474;2023-05-10T01:03:07;147.60;;;138.63;;
25932;SDS011;13731;51.166;4.474;2023-05-10T01:05:33;145.43;;;136.38;;
25932;SDS011;13731;51.166;4.474;2023-05-10T01:07:59;141.63;;;132.77;;
25932;SDS011;13731;51.166;4.474;2023-05-10T01:10:25;141.23;;;132.40;;
25932;SDS011;13731;51.166;4.474;2023-05-10T01:12:51;145.48;;;135.93;;
25932;SDS011;13731;51.166;4.474;2023-05-10T01:15:17;143.27;;;133.85;;
25932;SDS011;13731;51.166;4.474;2023-05-10T01:17:44;148.95;;;138.85;;
25932;SDS011;13731;51.166;4.474;2023-05-10T01:20:11;149.75;;;139.65;;
25932;SDS011;13731;51.166;4.474;2023-05-10T01:44:35;153.63;;;143.55;;
25932;SDS011;13731;51.166;4.474;2023-05-10T01:47:11;141.43;;;132.18;;
25932;SDS011;13731;51.166;4.474;2023-05-10T01:49:47;150.65;;;141.02;;
25932;SDS011;13731;51.166;4.474;2023-05-10T01:52:16;144.48;;;135.02;;
25932;SDS011;13731;51.166;4.474;2023-05-10T01:55:05;142.70;;;133.55;;
25932;SDS011;13731;51.166;4.474;2023-05-10T01:57:35;144.15;;;134.68;;
25932;SDS011;13731;51.166;4.474;2023-05-10T02:00:04;145.35;;;135.82;;
25932;SDS011;13731;51.166;4.474;2023-05-10T02:02:40;149.13;;;139.35;;
25932;SDS011;13731;51.166;4.474;2023-05-10T02:05:11;140.10;;;131.45;;
25932;SDS011;13731;51.166;4.474;2023-05-10T02:07:38;139.73;;;130.98;;
25932;SDS011;13731;51.166;4.474;2023-05-10T02:10:06;146.60;;;137.25;;
25932;SDS011;13731;51.166;4.474;2023-05-10T02:12:39;146.88;;;137.27;;
25932;SDS011;13731;51.166;4.474;2023-05-10T02:15:07;147.07;;;137.50;;
25932;SDS011;13731;51.166;4.474;2023-05-10T02:17:36;142.85;;;133.45;;
25932;SDS011;13731;51.166;4.474;2023-05-10T02:20:05;146.47;;;136.77;;
25932;SDS011;13731;51.166;4.474;2023-05-10T02:22:32;147.55;;;138.23;;
25932;SDS011;13731;51.166;4.474;2023-05-10T02:24:59;146.20;;;136.93;;
25932;SDS011;13731;51.166;4.474;2023-05-10T02:27:27;142.30;;;132.98;;
25932;SDS011;13731;51.166;4.474;2023-05-10T02:29:54;152.50;;;141.88;;
25932;SDS011;13731;51.166;4.474;2023-05-10T02:32:22;157.45;;;147.07;;
25932;SDS011;13731;51.166;4.474;2023-05-10T02:34:50;148.82;;;138.73;;
25932;SDS011;13731;51.166;4.474;2023-05-10T02:37:20;150.18;;;140.30;;
25932;SDS011;13731;51.166;4.474;2023-05-10T02:39:50;138.30;;;129.10;;
25932;SDS011;13731;51.166;4.474;2023-05-10T02:42:19;163.52;;;152.77;;
25932;SDS011;13731;51.166;4.474;2023-05-10T02:44:50;143.32;;;133.00;;
25932;SDS011;13731;51.166;4.474;2023-05-10T02:47:18;150.48;;;140.50;;
25932;SDS011;13731;51.166;4.474;2023-05-10T02:49:44;151.82;;;141.25;;
25932;SDS011;13731;51.166;4.474;2023-05-10T02:52:10;158.52;;;147.80;;
25932;SDS011;13731;51.166;4.474;2023-05-10T02:54:45;157.63;;;146.43;;
25932;SDS011;13731;51.166;4.474;2023-05-10T02:57:16;152.32;;;141.25;;
25932;SDS011;13731;51.166;4.474;2023-05-10T02:59:44;164.95;;;153.35;;
25932;SDS011;13731;51.166;4.474;2023-05-10T03:02:11;149.55;;;138.77;;
25932;SDS011;13731;51.166;4.474;2023-05-10T03:04:38;155.73;;;144.82;;
25932;SDS011;13731;51.166;4.474;2023-05-10T03:07:04;145.23;;;134.50;;
25932;SDS011;13731;51.166;4.474;2023-05-10T03:09:30;173.05;;;159.88;;
25932;SDS011;13731;51.166;4.474;2023-05-10T03:12:03;172.23;;;158.05;;
25932;SDS011;13731;51.166;4.474;2023-05-10T03:19:55;199.75;;;178.43;;
25932;SDS011;13731;51.166;4.474;2023-05-10T03:23:04;212.88;;;188.30;;
25932;SDS011;13731;51.166;4.474;2023-05-10T03:25:12;205.85;;;177.57;;
25932;SDS011;13731;51.166;4.474;2023-05-10T03:27:42;215.88;;;184.30;;
25932;SDS011;13731;51.166;4.474;2023-05-10T03:30:10;211.60;;;185.70;;
25932;SDS011;13731;51.166;4.474;2023-05-10T03:32:40;209.18;;;183.93;;
25932;SDS011;13731;51.166;4.474;2023-05-10T03:35:10;223.20;;;200.18;;
25932;SDS011;13731;51.166;4.474;2023-05-10T03:37:37;208.90;;;188.43;;
25932;SDS011;13731;51.166;4.474;2023-05-10T03:40:04;205.82;;;185.57;;
25932;SDS011;13731;51.166;4.474;2023-05-10T03:42:34;167.68;;;150.95;;
25932;SDS011;13731;51.166;4.474;2023-05-10T03:45:00;172.43;;;155.30;;
25932;SDS011;13731;51.166;4.474;2023-05-10T03:47:26;190.25;;;172.80;;
25932;SDS011;13731;51.166;4.474;2023-05-10T03:49:51;199.40;;;181.52;;
25932;SDS011;13731;51.166;4.474;2023-05-10T03:52:17;211.65;;;193.43;;
25932;SDS011;13731;51.166;4.474;2023-05-10T03:54:43;215.88;;;197.52;;
25932;SDS011;13731;51.166;4.474;2023-05-10T03:57:09;195.13;;;177.13;;
25932;SDS011;13731;51.166;4.474;2023-05-10T03:59:35;200.55;;;183.35;;
25932;SDS011;13731;51.166;4.474;2023-05-10T04:02:01;208.98;;;191.38;;
25932;SDS011;13731;51.166;4.474;2023-05-10T04:04:28;203.32;;;186.98;;
25932;SDS011;13731;51.166;4.474;2023-05-10T04:06:54;195.50;;;179.98;;
25932;SDS011;13731;51.166;4.474;2023-05-10T04:09:20;191.65;;;175.98;;
25932;SDS011;13731;51.166;4.474;2023-05-10T04:11:46;210.45;;;193.68;;
25932;SDS011;13731;51.166;4.474;2023-05-10T04:14:12;181.93;;;166.98;;
25932;SDS011;13731;51.166;4.474;2023-05-10T04:16:38;171.45;;;157.25;;
25932;SDS011;13731;51.166;4.474;2023-05-10T04:19:03;173.75;;;159.05;;
25932;SDS011;13731;51.166;4.474;2023-05-10T04:21:29;166.00;;;152.13;;
25932;SDS011;13731;51.166;4.474;2023-05-10T04:23:55;168.90;;;155.35;;
25932;SDS011;13731;51.166;4.474;2023-05-10T04:26:21;154.70;;;142.02;;
25932;SDS011;13731;51.166;4.474;2023-05-10T04:28:47;149.45;;;137.45;;
25932;SDS011;13731;51.166;4.474;2023-05-10T04:31:13;161.40;;;148.68;;
25932;SDS011;13731;51.166;4.474;2023-05-10T04:33:39;154.98;;;142.98;;
25932;SDS011;13731;51.166;4.474;2023-05-10T04:36:05;156.38;;;144.30;;
25932;SDS011;13731;51.166;4.474;2023-05-10T04:38:31;154.27;;;142.45;;
25932;SDS011;13731;51.166;4.474;2023-05-10T04:41:03;152.32;;;140.38;;
25932;SDS011;13731;51.166;4.474;2023-05-10T04:43:33;140.77;;;129.57;;
25932;SDS011;13731;51.166;4.474;2023-05-10T04:45:59;147.73;;;136.45;;
25932;SDS011;13731;51.166;4.474;2023-05-10T04:48:25;145.23;;;133.25;;
25932;SDS011;13731;51.166;4.474;2023-05-10T04:50:50;145.80;;;134.27;;
25932;SDS011;13731;51.166;4.474;2023-05-10T04:53:16;152.32;;;139.90;;
25932;SDS011;13731;51.166;4.474;2023-05-10T04:55:42;156.63;;;143.57;;
25932;SDS011;13731;51.166;4.474;2023-05-10T04:58:08;147.27;;;134.55;;
25932;SDS011;13731;51.166;4.474;2023-05-10T05:00:34;146.10;;;134.05;;
25932;SDS011;13731;51.166;4.474;2023-05-10T05:03:00;155.63;;;143.02;;
25932;SDS011;13731;51.166;4.474;2023-05-10T05:05:26;155.20;;;142.05;;
25932;SDS011;13731;51.166;4.474;2023-05-10T05:07:52;153.23;;;140.90;;
25932;SDS011;13731;51.166;4.474;2023-05-10T05:10:17;157.15;;;144.45;;
25932;SDS011;13731;51.166;4.474;2023-05-10T05:12:43;159.65;;;146.68;;
25932;SDS011;13731;51.166;4.474;2023-05-10T05:15:09;160.98;;;147.80;;
25932;SDS011;13731;51.166;4.474;2023-05-10T05:17:35;151.52;;;139.02;;
25932;SDS011;13731;51.166;4.474;2023-05-10T05:20:02;158.45;;;145.15;;
25932;SDS011;13731;51.166;4.474;2023-05-10T05:22:28;169.30;;;154.32;;
25932;SDS011;13731;51.166;4.474;2023-05-10T05:24:54;146.07;;;133.27;;
25932;SDS011;13731;51.166;4.474;2023-05-10T05:27:21;149.45;;;137.18;;
25932;SDS011;13731;51.166;4.474;2023-05-10T05:29:49;158.70;;;145.63;;
25932;SDS011;13731;51.166;4.474;2023-05-10T05:32:16;170.68;;;157.32;;
25932;SDS011;13731;51.166;4.474;2023-05-10T05:34:44;164.10;;;151.63;;
25932;SDS011;13731;51.166;4.474;2023-05-10T05:37:14;172.75;;;160.02;;
25932;SDS011;13731;51.166;4.474;2023-05-10T05:39:40;160.00;;;148.25;;
25932;SDS011;13731;51.166;4.474;2023-05-10T05:42:08;168.60;;;155.65;;
25932;SDS011;13731;51.166;4.474;2023-05-10T05:44:34;169.38;;;156.90;;
25932;SDS011;13731;51.166;4.474;2023-05-10T05:47:00;154.93;;;143.57;;
25932;SDS011;13731;51.166;4.474;2023-05-10T05:49:25;149.48;;;138.75;;
25932;SDS011;13731;51.166;4.474;2023-05-10T05:51:51;167.60;;;155.77;;
25932;SDS011;13731;51.166;4.474;2023-05-10T05:54:17;182.85;;;170.40;;
25932;SDS011;13731;51.166;4.474;2023-05-10T05:56:43;181.90;;;169.02;;
25932;SDS011;13731;51.166;4.474;2023-05-10T05:59:09;167.48;;;155.65;;
25932;SDS011;13731;51.166;4.474;2023-05-10T06:01:36;176.80;;;164.43;;
25932;SDS011;13731;51.166;4.474;2023-05-10T06:04:02;179.85;;;167.20;;
25932;SDS011;13731;51.166;4.474;2023-05-10T06:06:27;180.45;;;168.02;;
25932;SDS011;13731;51.166;4.474;2023-05-10T06:08:53;183.85;;;171.02;;
25932;SDS011;13731;51.166;4.474;2023-05-10T06:11:20;191.75;;;178.02;;
25932;SDS011;13731;51.166;4.474;2023-05-10T06:13:46;202.15;;;187.90;;
25932;SDS011;13731;51.166;4.474;2023-05-10T06:16:13;190.13;;;176.07;;
25932;SDS011;13731;51.166;4.474;2023-05-10T06:18:38;202.90;;;188.98;;
25932;SDS011;13731;51.166;4.474;2023-05-10T06:21:04;199.05;;;185.65;;
25932;SDS011;13731;51.166;4.474;2023-05-10T06:23:30;205.23;;;190.80;;
25932;SDS011;13731;51.166;4.474;2023-05-10T06:25:56;208.80;;;194.52;;
25932;SDS011;13731;51.166;4.474;2023-05-10T06:28:22;205.18;;;190.75;;
25932;SDS011;13731;51.166;4.474;2023-05-10T06:30:47;188.43;;;176.00;;
25932;SDS011;13731;51.166;4.474;2023-05-10T06:33:13;185.65;;;173.10;;
25932;SDS011;13731;51.166;4.474;2023-05-10T06:35:41;208.82;;;195.52;;
25932;SDS011;13731;51.166;4.474;2023-05-10T06:38:07;188.98;;;176.85;;
25932;SDS011;13731;51.166;4.474;2023-05-10T06:40:32;211.10;;;197.60;;
25932;SDS011;13731;51.166;4.474;2023-05-10T06:42:58;200.45;;;187.82;;
25932;SDS011;13731;51.166;4.474;2023-05-10T06:45:24;201.05;;;188.43;;
25932;SDS011;13731;51.166;4.474;2023-05-10T06:47:50;183.57;;;171.25;;
25932;SDS011;13731;51.166;4.474;2023-05-10T06:50:16;199.50;;;186.00;;
25932;SDS011;13731;51.166;4.474;2023-05-10T06:52:41;188.90;;;176.40;;
25932;SDS011;13731;51.166;4.474;2023-05-10T06:55:07;178.63;;;166.77;;
25932;SDS011;13731;51.166;4.474;2023-05-10T06:57:34;176.73;;;164.98;;
25932;SDS011;13731;51.166;4.474;2023-05-10T07:00:00;189.10;;;176.63;;
25932;SDS011;13731;51.166;4.474;2023-05-10T07:02:26;201.10;;;188.02;;
25932;SDS011;13731;51.166;4.474;2023-05-10T07:04:52;195.50;;;183.20;;
25932;SDS011;13731;51.166;4.474;2023-05-10T07:07:18;195.95;;;183.25;;
25932;SDS011;13731;51.166;4.474;2023-05-10T07:09:44;197.85;;;185.02;;
25932;SDS011;13731;51.166;4.474;2023-05-10T07:12:10;186.13;;;174.00;;
25932;SDS011;13731;51.166;4.474;2023-05-10T07:14:36;178.90;;;167.20;;
25932;SDS011;13731;51.166;4.474;2023-05-10T07:17:02;211.35;;;197.60;;
25932;SDS011;13731;51.166;4.474;2023-05-10T07:19:28;199.48;;;186.82;;
25932;SDS011;13731;51.166;4.474;2023-05-10T07:21:54;199.38;;;186.95;;
25932;SDS011;13731;51.166;4.474;2023-05-10T07:24:20;178.13;;;165.98;;
25932;SDS011;13731;51.166;4.474;2023-05-10T07:26:46;183.57;;;171.48;;
25932;SDS011;13731;51.166;4.474;2023-05-10T07:29:12;177.65;;;166.13;;
25932;SDS011;13731;51.166;4.474;2023-05-10T07:31:41;165.52;;;154.55;;
25932;SDS011;13731;51.166;4.474;2023-05-10T07:34:08;165.82;;;154.73;;
25932;SDS011;13731;51.166;4.474;2023-05-10T07:36:34;155.70;;;145.35;;
25932;SDS011;13731;51.166;4.474;2023-05-10T07:39:00;142.73;;;133.45;;
25932;SDS011;13731;51.166;4.474;2023-05-10T07:41:25;150.80;;;140.70;;
25932;SDS011;13731;51.166;4.474;2023-05-10T07:43:52;145.18;;;135.73;;
25932;SDS011;13731;51.166;4.474;2023-05-10T07:46:18;140.02;;;131.20;;
25932;SDS011;13731;51.166;4.474;2023-05-10T07:48:45;137.50;;;128.15;;
25932;SDS011;13731;51.166;4.474;2023-05-10T07:51:11;137.32;;;128.40;;
25932;SDS011;13731;51.166;4.474;2023-05-10T07:53:37;128.00;;;119.55;;
25932;SDS011;13731;51.166;4.474;2023-05-10T07:58:50;103.15;;;96.00;;
25932;SDS011;13731;51.166;4.474;2023-05-10T08:01:16;98.32;;;91.40;;
25932;SDS011;13731;51.166;4.474;2023-05-10T08:03:42;100.35;;;93.43;;
25932;SDS011;13731;51.166;4.474;2023-05-10T08:06:07;90.97;;;84.50;;
25932;SDS011;13731;51.166;4.474;2023-05-10T08:08:33;90.68;;;83.97;;
25932;SDS011;13731;51.166;4.474;2023-05-10T08:10:59;90.53;;;83.32;;
25932;SDS011;13731;51.166;4.474;2023-05-10T08:13:25;115.50;;;107.28;;
25932;SDS011;13731;51.166;4.474;2023-05-10T08:15:51;101.15;;;93.75;;
25932;SDS011;13731;51.166;4.474;2023-05-10T08:18:18;107.10;;;99.18;;
25932;SDS011;13731;51.166;4.474;2023-05-10T08:20:44;99.65;;;92.80;;
25932;SDS011;13731;51.166;4.474;2023-05-10T08:23:12;89.25;;;83.40;;
25932;SDS011;13731;51.166;4.474;2023-05-10T08:25:38;90.40;;;84.15;;
25932;SDS011;13731;51.166;4.474;2023-05-10T08:28:04;95.78;;;89.22;;
25932;SDS011;13731;51.166;4.474;2023-05-10T08:30:30;91.63;;;85.25;;
25932;SDS011;13731;51.166;4.474;2023-05-10T08:32:56;84.85;;;78.70;;
25932;SDS011;13731;51.166;4.474;2023-05-10T08:35:21;84.35;;;78.40;;
25932;SDS011;13731;51.166;4.474;2023-05-10T08:37:47;76.32;;;71.05;;
25932;SDS011;13731;51.166;4.474;2023-05-10T08:40:13;75.03;;;69.40;;
25932;SDS011;13731;51.166;4.474;2023-05-10T08:42:42;73.13;;;67.63;;
25932;SDS011;13731;51.166;4.474;2023-05-10T08:45:12;73.30;;;67.70;;
25932;SDS011;13731;51.166;4.474;2023-05-10T08:47:40;78.45;;;72.30;;
25932;SDS011;13731;51.166;4.474;2023-05-10T08:50:07;74.80;;;69.10;;
25932;SDS011;13731;51.166;4.474;2023-05-10T08:52:33;74.55;;;68.57;;
25932;SDS011;13731;51.166;4.474;2023-05-10T08:55:04;72.32;;;66.75;;
25932;SDS011;13731;51.166;4.474;2023-05-10T08:57:30;71.88;;;66.35;;
25932;SDS011;13731;51.166;4.474;2023-05-10T08:59:56;59.60;;;55.17;;
25932;SDS011;13731;51.166;4.474;2023-05-10T09:02:22;67.55;;;62.00;;
25932;SDS011;13731;51.166;4.474;2023-05-10T09:04:49;60.17;;;55.72;;
25932;SDS011;13731;51.166;4.474;2023-05-10T09:07:15;61.30;;;56.72;;
25932;SDS011;13731;51.166;4.474;2023-05-10T09:09:41;66.00;;;61.13;;
25932;SDS011;13731;51.166;4.474;2023-05-10T09:12:07;64.22;;;59.70;;
25932;SDS011;13731;51.166;4.474;2023-05-10T09:14:36;63.80;;;58.88;;
25932;SDS011;13731;51.166;4.474;2023-05-10T09:17:02;62.13;;;57.72;;
25932;SDS011;13731;51.166;4.474;2023-05-10T09:19:29;62.20;;;57.97;;
25932;SDS011;13731;51.166;4.474;2023-05-10T09:21:58;61.42;;;57.28;;
25932;SDS011;13731;51.166;4.474;2023-05-10T09:24:25;63.53;;;59.00;;
25932;SDS011;13731;51.166;4.474;2023-05-10T09:26:54;64.13;;;59.42;;
25932;SDS011;13731;51.166;4.474;2023-05-10T09:29:22;64.93;;;60.45;;
25932;SDS011;13731;51.166;4.474;2023-05-10T09:31:49;76.72;;;70.97;;
25932;SDS011;13731;51.166;4.474;2023-05-10T09:34:30;85.43;;;79.40;;
25932;SDS011;13731;51.166;4.474;2023-05-10T09:36:57;84.05;;;78.72;;
25932;SDS011;13731;51.166;4.474;2023-05-10T09:39:38;87.03;;;81.22;;
25932;SDS011;13731;51.166;4.474;2023-05-10T09:42:05;95.47;;;89.05;;
25932;SDS011;13731;51.166;4.474;2023-05-10T09:44:33;96.63;;;90.07;;
25932;SDS011;13731;51.166;4.474;2023-05-10T09:46:59;92.40;;;86.25;;
25932;SDS011;13731;51.166;4.474;2023-05-10T09:49:29;94.28;;;87.95;;
25932;SDS011;13731;51.166;4.474;2023-05-10T09:52:02;96.25;;;89.65;;
25932;SDS011;13731;51.166;4.474;2023-05-10T09:54:29;92.13;;;85.55;;
25932;SDS011;13731;51.166;4.474;2023-05-10T09:56:55;94.53;;;88.35;;
25932;SDS011;13731;51.166;4.474;2023-05-10T09:59:21;92.88;;;86.60;;
25932;SDS011;13731;51.166;4.474;2023-05-10T10:01:51;87.28;;;81.80;;
25932;SDS011;13731;51.166;4.474;2023-05-10T10:04:24;86.65;;;80.72;;
25932;SDS011;13731;51.166;4.474;2023-05-10T10:07:00;92.18;;;85.97;;
25932;SDS011;13731;51.166;4.474;2023-05-10T10:11:56;84.13;;;78.57;;
25932;SDS011;13731;51.166;4.474;2023-05-10T10:14:22;93.80;;;87.07;;
25932;SDS011;13731;51.166;4.474;2023-05-10T10:16:51;103.05;;;96.32;;
25932;SDS011;13731;51.166;4.474;2023-05-10T10:19:18;102.38;;;95.72;;
25932;SDS011;13731;51.166;4.474;2023-05-10T10:21:45;97.68;;;91.53;;
25932;SDS011;13731;51.166;4.474;2023-05-10T10:24:12;98.38;;;92.65;;
25932;SDS011;13731;51.166;4.474;2023-05-10T10:26:38;91.35;;;86.07;;
25932;SDS011;13731;51.166;4.474;2023-05-10T10:31:50;63.40;;;58.85;;
25932;SDS011;13731;51.166;4.474;2023-05-10T10:34:31;52.85;;;49.30;;
25932;SDS011;13731;51.166;4.474;2023-05-10T10:37:03;53.08;;;49.35;;
25932;SDS011;13731;51.166;4.474;2023-05-10T10:39:30;52.80;;;48.78;;
25932;SDS011;13731;51.166;4.474;2023-05-10T10:41:57;39.42;;;36.28;;
25932;SDS011;13731;51.166;4.474;2023-05-10T10:50:26;60.03;;;56.00;;
25932;SDS011;13731;51.166;4.474;2023-05-10T10:52:34;75.05;;;70.53;;
25932;SDS011;13731;51.166;4.474;2023-05-10T10:55:01;54.63;;;50.75;;
25932;SDS011;13731;51.166;4.474;2023-05-10T11:08:11;64.35;;;60.17;;
25932;SDS011;13731;51.166;4.474;2023-05-10T11:15:57;64.88;;;60.80;;
25932;SDS011;13731;51.166;4.474;2023-05-10T11:18:28;77.25;;;72.65;;
25932;SDS011;13731;51.166;4.474;2023-05-10T11:20:59;82.68;;;77.90;;
25932;SDS011;13731;51.166;4.474;2023-05-10T11:23:32;87.47;;;82.35;;
25932;SDS011;13731;51.166;4.474;2023-05-10T11:26:12;87.28;;;82.38;;
25932;SDS011;13731;51.166;4.474;2023-05-10T11:28:41;82.93;;;78.05;;
25932;SDS011;13731;51.166;4.474;2023-05-10T11:31:14;86.05;;;81.07;;
25932;SDS011;13731;51.166;4.474;2023-05-10T11:36:11;82.78;;;77.70;;
25932;SDS011;13731;51.166;4.474;2023-05-10T11:38:39;87.50;;;81.70;;
25932;SDS011;13731;51.166;4.474;2023-05-10T11:41:06;88.43;;;83.47;;
25932;SDS011;13731;51.166;4.474;2023-05-10T11:43:34;91.43;;;85.13;;
25932;SDS011;13731;51.166;4.474;2023-05-10T11:46:01;90.85;;;85.72;;
25932;SDS011;13731;51.166;4.474;2023-05-10T11:48:29;88.95;;;83.68;;
25932;SDS011;13731;51.166;4.474;2023-05-10T11:50:55;85.20;;;80.47;;
25932;SDS011;13731;51.166;4.474;2023-05-10T11:53:23;85.57;;;80.78;;
25932;SDS011;13731;51.166;4.474;2023-05-10T11:55:51;82.05;;;77.68;;
25932;SDS011;13731;51.166;4.474;2023-05-10T11:58:17;92.55;;;87.25;;
25932;SDS011;13731;51.166;4.474;2023-05-10T12:00:44;90.63;;;85.35;;
25932;SDS011;13731;51.166;4.474;2023-05-10T12:03:11;83.13;;;78.55;;
25932;SDS011;13731;51.166;4.474;2023-05-10T12:05:37;88.70;;;83.57;;
25932;SDS011;13731;51.166;4.474;2023-05-10T12:08:15;84.88;;;79.85;;
25932;SDS011;13731;51.166;4.474;2023-05-10T12:10:46;81.47;;;77.07;;
25932;SDS011;13731;51.166;4.474;2023-05-10T12:13:13;87.13;;;81.72;;
25932;SDS011;13731;51.166;4.474;2023-05-10T12:15:40;83.55;;;78.65;;
25932;SDS011;13731;51.166;4.474;2023-05-10T12:18:10;80.35;;;75.68;;
25932;SDS011;13731;51.166;4.474;2023-05-10T12:20:37;73.90;;;69.65;;
25932;SDS011;13731;51.166;4.474;2023-05-10T12:23:04;78.15;;;73.68;;
25932;SDS011;13731;51.166;4.474;2023-05-10T12:25:31;73.22;;;68.93;;
25932;SDS011;13731;51.166;4.474;2023-05-10T12:27:58;89.75;;;84.85;;
25932;SDS011;13731;51.166;4.474;2023-05-10T12:30:29;84.18;;;79.43;;
25932;SDS011;13731;51.166;4.474;2023-05-10T12:33:02;90.40;;;85.20;;
25932;SDS011;13731;51.166;4.474;2023-05-10T12:35:50;87.93;;;83.10;;
25932;SDS011;13731;51.166;4.474;2023-05-10T12:41:05;78.15;;;73.60;;
25932;SDS011;13731;51.166;4.474;2023-05-10T12:43:33;66.60;;;62.80;;
25932;SDS011;13731;51.166;4.474;2023-05-10T12:48:52;78.97;;;74.53;;
25932;SDS011;13731;51.166;4.474;2023-05-10T12:51:20;80.60;;;75.85;;
25932;SDS011;13731;51.166;4.474;2023-05-10T12:53:47;87.65;;;82.70;;
25932;SDS011;13731;51.166;4.474;2023-05-10T12:56:13;91.45;;;86.43;;
25932;SDS011;13731;51.166;4.474;2023-05-10T12:58:39;81.43;;;76.53;;
25932;SDS011;13731;51.166;4.474;2023-05-10T13:01:04;79.85;;;75.28;;
25932;SDS011;13731;51.166;4.474;2023-05-10T13:03:30;70.90;;;66.68;;
25932;SDS011;13731;51.166;4.474;2023-05-10T13:05:57;72.75;;;68.50;;
25932;SDS011;13731;51.166;4.474;2023-05-10T13:08:22;68.07;;;63.80;;
25932;SDS011;13731;51.166;4.474;2023-05-10T13:10:48;73.97;;;69.68;;
25932;SDS011;13731;51.166;4.474;2023-05-10T13:13:15;71.93;;;67.68;;
25932;SDS011;13731;51.166;4.474;2023-05-10T13:15:40;75.65;;;71.30;;
25932;SDS011;13731;51.166;4.474;2023-05-10T13:18:06;70.53;;;66.13;;
25932;SDS011;13731;51.166;4.474;2023-05-10T13:20:32;76.70;;;72.40;;
25932;SDS011;13731;51.166;4.474;2023-05-10T13:22:57;71.55;;;67.05;;
25932;SDS011;13731;51.166;4.474;2023-05-10T13:25:23;75.32;;;70.88;;
25932;SDS011;13731;51.166;4.474;2023-05-10T13:27:49;75.63;;;71.35;;
25932;SDS011;13731;51.166;4.474;2023-05-10T13:30:15;73.65;;;69.43;;
25932;SDS011;13731;51.166;4.474;2023-05-10T13:32:41;77.35;;;72.95;;
25932;SDS011;13731;51.166;4.474;2023-05-10T13:35:07;76.88;;;72.38;;
25932;SDS011;13731;51.166;4.474;2023-05-10T13:37:33;76.20;;;71.65;;
25932;SDS011;13731;51.166;4.474;2023-05-10T13:40:02;77.03;;;72.22;;
25932;SDS011;13731;51.166;4.474;2023-05-10T13:42:29;80.93;;;76.03;;
25932;SDS011;13731;51.166;4.474;2023-05-10T13:44:56;82.35;;;77.53;;
25932;SDS011;13731;51.166;4.474;2023-05-10T13:47:22;76.10;;;71.57;;
25932;SDS011;13731;51.166;4.474;2023-05-10T13:49:48;87.93;;;82.75;;
25932;SDS011;13731;51.166;4.474;2023-05-10T13:52:14;88.07;;;82.95;;
25932;SDS011;13731;51.166;4.474;2023-05-10T13:54:39;87.35;;;82.32;;
25932;SDS011;13731;51.166;4.474;2023-05-10T13:57:05;90.75;;;85.47;;
25932;SDS011;13731;51.166;4.474;2023-05-10T13:59:32;92.10;;;86.95;;
25932;SDS011;13731;51.166;4.474;2023-05-10T14:01:58;99.88;;;94.35;;
25932;SDS011;13731;51.166;4.474;2023-05-10T14:04:24;102.88;;;96.65;;
25932;SDS011;13731;51.166;4.474;2023-05-10T14:06:50;103.43;;;97.28;;
25932;SDS011;13731;51.166;4.474;2023-05-10T14:09:17;111.70;;;105.35;;
25932;SDS011;13731;51.166;4.474;2023-05-10T14:11:43;104.75;;;98.88;;
25932;SDS011;13731;51.166;4.474;2023-05-10T14:14:10;100.88;;;95.43;;
25932;SDS011;13731;51.166;4.474;2023-05-10T14:16:35;98.85;;;93.35;;
25932;SDS011;13731;51.166;4.474;2023-05-10T14:19:01;105.00;;;99.28;;
25932;SDS011;13731;51.166;4.474;2023-05-10T14:21:28;107.70;;;101.47;;
25932;SDS011;13731;51.166;4.474;2023-05-10T14:23:55;109.35;;;102.82;;
25932;SDS011;13731;51.166;4.474;2023-05-10T14:26:22;93.65;;;88.07;;
25932;SDS011;13731;51.166;4.474;2023-05-10T14:28:48;95.72;;;89.75;;
25932;SDS011;13731;51.166;4.474;2023-05-10T14:31:14;89.63;;;84.28;;
25932;SDS011;13731;51.166;4.474;2023-05-10T14:33:41;100.90;;;94.45;;
25932;SDS011;13731;51.166;4.474;2023-05-10T14:36:08;93.28;;;87.38;;
25932;SDS011;13731;51.166;4.474;2023-05-10T14:38:34;103.78;;;97.53;;
25932;SDS011;13731;51.166;4.474;2023-05-10T14:41:00;96.78;;;90.57;;
25932;SDS011;13731;51.166;4.474;2023-05-10T14:43:26;100.18;;;94.00;;
25932;SDS011;13731;51.166;4.474;2023-05-10T14:45:52;97.47;;;91.90;;
25932;SDS011;13731;51.166;4.474;2023-05-10T14:48:18;107.10;;;100.88;;
25932;SDS011;13731;51.166;4.474;2023-05-10T14:50:46;108.00;;;101.68;;
25932;SDS011;13731;51.166;4.474;2023-05-10T14:53:12;126.20;;;118.95;;
25932;SDS011;13731;51.166;4.474;2023-05-10T14:55:37;130.80;;;123.70;;
25932;SDS011;13731;51.166;4.474;2023-05-10T14:58:04;120.68;;;113.65;;
25932;SDS011;13731;51.166;4.474;2023-05-10T15:00:30;100.28;;;94.53;;
25932;SDS011;13731;51.166;4.474;2023-05-10T15:02:56;99.15;;;93.47;;
25932;SDS011;13731;51.166;4.474;2023-05-10T15:05:22;102.82;;;96.97;;
25932;SDS011;13731;51.166;4.474;2023-05-10T15:07:48;79.00;;;74.80;;
25932;SDS011;13731;51.166;4.474;2023-05-10T15:10:14;79.97;;;75.85;;
25932;SDS011;13731;51.166;4.474;2023-05-10T15:12:40;84.75;;;80.30;;